Time;durP1;ratioP1;P1;durP2;ratioP2;P2;SDS_P1;SDS_P2;PMS_P1;PMS_P2;Temp;Humidity;BMP_temperature;BMP_pressure;BME280_temperature;BME280_humidity;BME280_pressure;Samples;Min_cycle;Max_cycle;Signal;HPM_P1;HPM_P2
2021/07/02 00:00:06;;;;;;;8.98;5.78;;;;;;;22.22;100.00;96404.53;5026546;28;20071;-59
2021/07/02 00:02:35;;;;;;;8.90;6.20;;;;;;;22.57;100.00;96404.03;5018151;28;20459;-58
2021/07/02 00:05:07;;;;;;;12.25;5.95;;;;;;;22.16;100.00;96407.28;5017808;28;20061;-56
2021/07/02 00:07:35;;;;;;;9.75;6.63;;;;;;;22.11;100.00;96407.09;5026698;28;20084;-58
2021/07/02 00:10:04;;;;;;;9.98;5.85;;;;;;;22.62;100.00;96406.88;5029428;28;20284;-58
2021/07/02 00:12:34;;;;;;;9.20;6.30;;;;;;;23.33;100.00;96397.44;5025689;28;20061;-58
2021/07/02 00:15:05;;;;;;;7.65;5.57;;;;;;;23.06;100.00;96399.63;5028384;28;21396;-58
2021/07/02 00:17:33;;;;;;;9.70;5.95;;;;;;;21.92;100.00;96403.50;5029804;28;20065;-57
2021/07/02 00:20:01;;;;;;;8.73;5.60;;;;;;;22.01;100.00;96402.22;5040316;28;20573;-58
2021/07/02 00:22:33;;;;;;;10.45;6.20;;;;;;;22.72;100.00;96398.31;5040646;28;20045;-59
2021/07/02 00:25:03;;;;;;;8.65;6.28;;;;;;;22.78;100.00;96394.75;5016516;28;20070;-58
2021/07/02 00:27:31;;;;;;;8.00;5.97;;;;;;;22.70;100.00;96395.84;5024070;28;20155;-58
2021/07/02 00:30:00;;;;;;;10.05;5.93;;;;;;;23.45;100.00;96387.53;5020789;28;20066;-57
2021/07/02 00:32:28;;;;;;;8.32;5.95;;;;;;;23.30;100.00;96394.38;5027950;28;20076;-57
2021/07/02 00:34:57;;;;;;;7.70;6.05;;;;;;;22.18;100.00;96397.16;5040328;28;20504;-57
2021/07/02 00:37:25;;;;;;;7.53;5.85;;;;;;;22.31;100.00;96396.22;5039557;28;20096;-57
2021/07/02 00:39:55;;;;;;;7.30;5.82;;;;;;;22.49;100.00;96391.69;5025407;28;20077;-58
2021/07/02 00:42:23;;;;;;;7.57;6.10;;;;;;;22.40;100.00;96389.50;5017583;28;20096;-57
2021/07/02 00:44:51;;;;;;;8.45;6.45;;;;;;;23.10;100.00;96398.13;5017954;28;20862;-58
2021/07/02 00:47:20;;;;;;;7.80;5.75;;;;;;;22.28;100.00;96395.63;5014255;28;20080;-54
2021/07/02 00:49:48;;;;;;;8.55;6.30;;;;;;;21.73;100.00;96394.56;5024208;28;20077;-57
2021/07/02 00:52:16;;;;;;;9.50;6.38;;;;;;;21.91;100.00;96389.25;5024393;28;20095;-57
2021/07/02 00:54:46;;;;;;;8.75;5.65;;;;;;;21.53;100.00;96384.75;5019659;28;20065;-56
2021/07/02 00:57:16;;;;;;;8.43;5.97;;;;;;;22.56;100.00;96382.75;5027126;28;20069;-55
2021/07/02 00:59:44;;;;;;;8.90;6.13;;;;;;;22.65;100.00;96390.31;5041250;28;20123;-57
2021/07/02 01:02:13;;;;;;;7.78;5.80;;;;;;;21.48;100.00;96389.16;5037721;28;20065;-58
2021/07/02 01:04:42;;;;;;;7.95;5.82;;;;;;;22.44;100.00;96382.69;5027911;28;20085;-58
2021/07/02 01:07:29;;;;;;;8.57;5.43;;;;;;;22.58;100.00;96383.38;5024844;28;20048;-56
2021/07/02 01:09:58;;;;;;;8.45;5.43;;;;;;;22.79;100.00;96379.44;5028620;28;20037;-56
2021/07/02 01:12:28;;;;;;;7.65;5.75;;;;;;;23.42;100.00;96379.91;5022840;28;20068;-58
2021/07/02 01:14:56;;;;;;;7.30;5.40;;;;;;;23.60;100.00;96376.34;5027393;28;20061;-58
2021/07/02 01:17:24;;;;;;;10.35;5.97;;;;;;;22.24;100.00;96382.84;5032832;28;20085;-58
2021/07/02 01:19:54;;;;;;;7.63;5.82;;;;;;;23.17;100.00;96377.34;5019147;28;20451;-58
2021/07/02 01:22:26;;;;;;;6.93;5.50;;;;;;;23.49;100.00;96376.31;5037507;28;20077;-56
2021/07/02 01:24:55;;;;;;;9.07;5.25;;;;;;;22.77;100.00;96381.50;5033332;28;20084;-56
2021/07/02 01:27:24;;;;;;;7.47;5.88;;;;;;;22.80;100.00;96383.75;5024861;28;20044;-57
2021/07/02 01:29:52;;;;;;;8.65;5.80;;;;;;;23.31;100.00;96379.88;5028174;28;20061;-58
2021/07/02 01:32:21;;;;;;;7.57;5.15;;;;;;;23.42;100.00;96387.97;5034876;28;20090;-57
2021/07/02 01:34:50;;;;;;;7.35;5.40;;;;;;;22.82;100.00;96382.50;5015876;28;20085;-58
2021/07/02 01:37:18;;;;;;;8.15;6.07;;;;;;;22.74;100.00;96380.06;5030990;28;20084;-58
2021/07/02 01:39:48;;;;;;;8.43;5.55;;;;;;;22.50;100.00;96382.63;5035017;28;20061;-58
2021/07/02 01:42:16;;;;;;;7.47;5.65;;;;;;;22.62;100.00;96380.00;5023204;28;20492;-58
2021/07/02 01:44:45;;;;;;;8.15;5.38;;;;;;;22.23;100.00;96381.22;5021321;28;20073;-58
2021/07/02 01:47:13;;;;;;;9.85;6.00;;;;;;;21.88;100.00;96378.97;5026140;28;20538;-57
2021/07/02 01:49:41;;;;;;;6.88;5.78;;;;;;;22.32;100.00;96377.19;5019127;28;20073;-55
2021/07/02 01:52:10;;;;;;;7.85;5.63;;;;;;;22.94;100.00;96385.28;5038276;28;20443;-56
2021/07/02 01:54:38;;;;;;;7.10;5.45;;;;;;;22.47;100.00;96377.69;5024826;28;20096;-56
2021/07/02 01:57:12;;;;;;;7.10;5.53;;;;;;;22.84;100.00;96375.00;5031226;28;20479;-57
2021/07/02 01:59:41;;;;;;;10.65;5.95;;;;;;;22.81;100.00;96372.75;5036182;28;20125;-52
2021/07/02 02:02:09;;;;;;;8.93;6.00;;;;;;;22.56;100.00;96374.69;5020503;28;20906;-56
2021/07/02 02:04:37;;;;;;;9.43;6.13;;;;;;;22.24;100.00;96372.09;5019458;28;20081;-51
2021/07/02 02:07:06;;;;;;;8.38;5.80;;;;;;;22.14;100.00;96377.13;5020635;28;20464;-58
2021/07/02 02:09:34;;;;;;;9.98;6.32;;;;;;;22.77;100.00;96370.75;5024185;28;20068;-57
2021/07/02 02:12:03;;;;;;;8.23;6.15;;;;;;;22.83;100.00;96367.19;5008250;28;20069;-55
2021/07/02 02:14:33;;;;;;;7.85;6.15;;;;;;;23.27;100.00;96367.94;5023563;28;20065;-57
2021/07/02 02:17:02;;;;;;;10.73;6.00;;;;;;;22.62;100.00;96361.19;5027775;28;20045;-58
2021/07/02 02:19:30;;;;;;;6.43;5.40;;;;;;;23.11;100.00;96372.03;5012234;28;20104;-56
2021/07/02 02:21:58;;;;;;;8.07;5.57;;;;;;;23.29;100.00;96358.56;5035530;28;20072;-58
2021/07/02 02:24:28;;;;;;;6.93;5.80;;;;;;;23.16;100.00;96366.81;5015420;28;20072;-58
2021/07/02 02:26:56;;;;;;;9.70;6.22;;;;;;;23.02;100.00;96365.31;5011945;28;20069;-54
2021/07/02 02:29:25;;;;;;;7.78;5.65;;;;;;;23.73;97.81;96372.69;5017988;28;20072;-56
2021/07/02 02:31:54;;;;;;;8.88;5.63;;;;;;;23.67;97.78;96366.34;5016085;28;20084;-57
2021/07/02 02:34:23;;;;;;;9.38;5.90;;;;;;;22.49;100.00;96378.25;5015709;28;20081;-57
2021/07/02 02:36:51;;;;;;;8.73;5.85;;;;;;;23.15;100.00;96365.97;5029922;28;20060;-57
2021/07/02 02:39:38;;;;;;;8.18;5.90;;;;;;;21.54;100.00;96364.97;5021166;28;20051;-58
2021/07/02 02:42:07;;;;;;;9.18;6.07;;;;;;;22.08;100.00;96373.44;5032891;28;20068;-56
2021/07/02 02:44:35;;;;;;;9.45;6.50;;;;;;;21.89;100.00;96371.75;5024581;28;20092;-58
2021/07/02 02:47:05;;;;;;;8.43;6.10;;;;;;;22.21;100.00;96369.84;5018658;28;20068;-57
2021/07/02 02:49:34;;;;;;;9.38;6.72;;;;;;;22.27;100.00;96372.50;5023594;28;20610;-58
2021/07/02 02:52:02;;;;;;;8.48;5.97;;;;;;;22.45;100.00;96370.88;5019657;28;20068;-57
2021/07/02 02:54:31;;;;;;;8.98;5.85;;;;;;;22.67;100.00;96371.25;5030878;28;20079;-58
2021/07/02 02:57:05;;;;;;;11.55;6.70;;;;;;;22.80;100.00;96371.13;5028454;28;20057;-58
2021/07/02 02:59:35;;;;;;;8.25;6.30;;;;;;;22.51;100.00;96378.88;5022549;28;20068;-57
2021/07/02 03:02:06;;;;;;;7.73;5.83;;;;;;;22.18;100.00;96381.84;5020722;28;20068;-56
2021/07/02 03:04:34;;;;;;;;;;;;;;;22.23;100.00;96382.03;5025334;28;20075;-58
2021/07/02 03:07:04;;;;;;;8.70;6.10;;;;;;;21.54;100.00;96382.91;5015406;28;19956;-58
2021/07/02 03:09:32;;;;;;;9.93;6.88;;;;;;;22.02;100.00;96382.38;5027890;28;20065;-54
2021/07/02 03:12:01;;;;;;;9.32;6.70;;;;;;;21.45;100.00;96378.84;5033334;28;20072;-58
2021/07/02 03:14:29;;;;;;;9.32;6.43;;;;;;;21.82;100.00;96385.22;5043295;28;20073;-57
2021/07/02 03:17:18;;;;;;;8.45;6.50;;;;;;;21.60;100.00;96373.16;5042200;28;20126;-58
2021/07/02 03:19:46;;;;;;;12.23;6.97;;;;;;;21.09;100.00;96386.41;5038096;28;20076;-56
2021/07/02 03:22:14;;;;;;;10.55;6.95;;;;;;;21.46;100.00;96380.47;5041793;28;20499;-58
2021/07/02 03:24:43;;;;;;;10.10;7.07;;;;;;;21.71;100.00;96389.41;5020007;28;20065;-58
2021/07/02 03:27:11;;;;;;;9.40;6.97;;;;;;;21.55;100.00;96381.88;5033251;28;20064;-57
2021/07/02 03:29:40;;;;;;;9.95;7.00;;;;;;;21.58;100.00;96383.31;5036577;28;20458;-58
2021/07/02 03:32:09;;;;;;;9.85;7.07;;;;;;;21.80;100.00;96382.72;5032708;28;20088;-56
2021/07/02 03:34:43;;;;;;;11.68;7.15;;;;;;;21.46;100.00;96386.66;5011581;28;20084;-53
2021/07/02 03:37:12;;;;;;;12.40;6.82;;;;;;;21.39;100.00;96388.56;5019467;28;20100;-58
2021/07/02 03:39:40;;;;;;;9.35;6.90;;;;;;;21.59;100.00;96383.09;5029432;28;20076;-58
2021/07/02 03:42:09;;;;;;;10.85;7.40;;;;;;;21.67;100.00;96384.69;5034851;28;20084;-58
2021/07/02 03:44:37;;;;;;;10.15;6.90;;;;;;;21.74;100.00;96382.78;5020364;28;20139;-58
2021/07/02 03:47:06;;;;;;;10.20;7.32;;;;;;;21.18;100.00;96384.28;5023606;28;20456;-56
2021/07/02 03:49:34;;;;;;;9.65;7.60;;;;;;;21.19;100.00;96385.94;5044580;28;20076;-57
2021/07/02 03:52:05;;;;;;;11.77;7.40;;;;;;;21.21;100.00;96388.41;5014242;28;20589;-57
2021/07/02 03:54:33;;;;;;;12.73;7.93;;;;;;;21.29;100.00;96388.97;5020822;28;20065;-54
2021/07/02 03:57:14;;;;;;;10.73;7.35;;;;;;;21.30;100.00;96389.81;5031474;28;20076;-57
2021/07/02 03:59:42;;;;;;;;;;;;;;;20.78;100.00;96384.44;5027053;28;20062;-58
2021/07/02 04:02:11;;;;;;;9.85;6.85;;;;;;;21.84;100.00;96390.34;5012907;28;20421;-57
2021/07/02 04:04:40;;;;;;;10.40;7.47;;;;;;;21.51;100.00;96384.16;5031417;28;20083;-57
2021/07/02 04:07:11;;;;;;;11.73;7.68;;;;;;;21.37;100.00;96387.97;5023424;28;20100;-59
2021/07/02 04:09:40;;;;;;;12.60;8.10;;;;;;;21.38;100.00;96389.59;5032618;28;20068;-61
2021/07/02 04:12:09;;;;;;;9.65;7.78;;;;;;;21.53;100.00;96387.44;5036370;28;20512;-58
2021/07/02 04:14:38;;;;;;;12.60;7.90;;;;;;;21.58;100.00;96386.00;5031624;28;20448;-59
2021/07/02 04:17:06;;;;;;;10.50;8.18;;;;;;;21.48;100.00;96391.81;5019012;28;20088;-60
2021/07/02 04:19:36;;;;;;;10.75;8.30;;;;;;;22.07;100.00;96384.41;5018042;28;20092;-59
2021/07/02 04:22:08;;;;;;;11.75;8.20;;;;;;;21.42;100.00;96387.31;5038699;28;20285;-57
2021/07/02 04:24:38;;;;;;;10.55;7.97;;;;;;;21.95;100.00;96390.47;5040220;28;20072;-60
2021/07/02 04:27:13;;;;;;;9.60;7.65;;;;;;;21.60;100.00;96391.94;5022823;28;20073;-59
2021/07/02 04:29:42;;;;;;;11.50;7.97;;;;;;;21.78;100.00;96394.72;5027589;28;20037;-57
2021/07/02 04:32:11;;;;;;;10.80;7.95;;;;;;;22.13;100.00;96384.38;5034662;28;20096;-59
2021/07/02 04:34:39;;;;;;;12.27;8.20;;;;;;;22.14;100.00;96399.41;5037475;28;20075;-59
2021/07/02 04:37:08;;;;;;;10.88;8.15;;;;;;;22.06;100.00;96399.72;5018518;28;20085;-60
2021/07/02 04:39:37;;;;;;;10.93;8.15;;;;;;;21.25;100.00;96398.50;5032481;28;20068;-59
2021/07/02 04:42:06;;;;;;;9.70;8.18;;;;;;;21.18;100.00;96399.56;5035439;28;20080;-57
2021/07/02 04:44:36;;;;;;;11.35;8.10;;;;;;;21.60;100.00;96392.78;5028721;28;20845;-60
2021/07/02 04:47:05;;;;;;;12.55;7.97;;;;;;;22.75;100.00;96387.94;5022043;28;20068;-59
2021/07/02 04:49:34;;;;;;;10.25;8.35;;;;;;;22.10;100.00;96387.47;5016274;28;20081;-60
2021/07/02 04:52:02;;;;;;;11.57;8.73;;;;;;;22.21;100.00;96388.66;5022984;28;20073;-58
2021/07/02 04:54:30;;;;;;;11.05;8.35;;;;;;;22.52;100.00;96390.44;5034781;28;20479;-60
2021/07/02 04:57:01;;;;;;;14.63;8.43;;;;;;;22.70;100.00;96395.00;5027246;28;20085;-60
2021/07/02 04:59:33;;;;;;;11.70;8.27;;;;;;;22.32;100.00;96392.50;5021050;28;20459;-59
2021/07/02 05:02:01;;;;;;;11.68;7.85;;;;;;;21.78;100.00;96397.41;5035385;28;20080;-60
2021/07/02 05:04:29;;;;;;;10.20;7.75;;;;;;;22.07;100.00;96400.53;5042559;28;20084;-60
2021/07/02 05:06:58;;;;;;;14.60;8.00;;;;;;;21.39;100.00;96383.19;5026840;28;20072;-60
2021/07/02 05:09:26;;;;;;;12.00;7.57;;;;;;;21.31;100.00;96394.97;5020031;28;20077;-61
2021/07/02 05:11:55;;;;;;;14.55;8.50;;;;;;;21.71;100.00;96400.16;5028815;28;20559;-58
2021/07/02 05:14:24;;;;;;;12.35;8.48;;;;;;;22.49;100.00;96398.94;5032895;28;20058;-58
2021/07/02 05:16:53;;;;;;;12.05;8.20;;;;;;;23.00;100.00;96405.91;5043542;28;20111;-59
2021/07/02 05:19:41;;;;;;;12.70;7.45;;;;;;;22.61;100.00;96401.72;5033516;28;20071;-58
2021/07/02 05:22:13;;;;;;;11.23;7.85;;;;;;;22.41;100.00;96407.31;5019268;28;20092;-58
2021/07/02 05:24:42;;;;;;;15.32;8.00;;;;;;;23.01;100.00;96401.34;5033343;28;20064;-60
2021/07/02 05:27:10;;;;;;;17.23;7.90;;;;;;;23.25;100.00;96400.41;5021765;28;20076;-58
2021/07/02 05:29:40;;;;;;;12.30;7.47;;;;;;;22.85;100.00;96410.78;5019170;28;20530;-59
2021/07/02 05:32:09;;;;;;;8.90;6.80;;;;;;;22.97;100.00;96409.84;5035343;28;20608;-57
2021/07/02 05:34:37;;;;;;;10.88;7.22;;;;;;;23.22;100.00;96407.06;5038487;28;20072;-57
2021/07/02 05:37:06;;;;;;;14.10;7.35;;;;;;;22.84;100.00;96403.75;5038850;28;20072;-59
2021/07/02 05:39:34;;;;;;;8.90;7.53;;;;;;;23.82;100.00;96409.00;5034594;28;20068;-59
2021/07/02 05:42:04;;;;;;;9.50;6.90;;;;;;;24.54;100.00;96416.19;5030869;28;20075;-59
2021/07/02 05:44:33;;;;;;;9.52;6.70;;;;;;;22.25;100.00;96419.41;5018161;28;20066;-58
2021/07/02 05:47:03;;;;;;;11.30;7.47;;;;;;;23.09;100.00;96414.47;5009189;28;20555;-59
2021/07/02 05:49:32;;;;;;;9.02;6.47;;;;;;;24.05;100.00;96419.00;5015036;28;20476;-59
2021/07/02 05:52:00;;;;;;;8.65;6.78;;;;;;;24.13;100.00;96418.69;5017066;28;20065;-59
2021/07/02 05:54:29;;;;;;;9.65;6.65;;;;;;;23.88;100.00;96428.78;5015952;28;20562;-58
2021/07/02 05:56:57;;;;;;;8.30;6.75;;;;;;;22.88;100.00;96427.31;5029336;28;20134;-59
2021/07/02 05:59:25;;;;;;;7.75;6.32;;;;;;;23.10;100.00;96427.72;5033087;28;20164;-58
2021/07/02 06:01:54;;;;;;;10.57;7.07;;;;;;;23.22;100.00;96428.59;5024754;28;20084;-59
2021/07/02 06:04:24;;;;;;;7.72;6.20;;;;;;;22.98;100.00;96434.88;5028243;28;20085;-60
2021/07/02 06:06:52;;;;;;;9.32;6.18;;;;;;;22.59;100.00;96433.38;5035690;28;20056;-59
2021/07/02 06:09:21;;;;;;;8.75;6.88;;;;;;;23.26;100.00;96437.03;5021525;28;20465;-59
2021/07/02 06:11:49;;;;;;;8.07;6.07;;;;;;;23.18;100.00;96440.84;5023468;28;20076;-56
2021/07/02 06:14:18;;;;;;;10.65;7.72;;;;;;;22.52;100.00;96439.63;5037777;28;20557;-58
2021/07/02 06:16:47;;;;;;;8.35;6.35;;;;;;;22.54;100.00;96442.13;5035977;28;20088;-59
2021/07/02 06:19:15;;;;;;;9.30;6.75;;;;;;;23.61;100.00;96442.63;5029122;28;20049;-59
2021/07/02 06:21:45;;;;;;;7.50;6.22;;;;;;;23.30;100.00;96440.13;5019862;28;20263;-58
2021/07/02 06:24:14;;;;;;;9.88;6.82;;;;;;;23.58;100.00;96436.88;5028215;28;20064;-59
2021/07/02 06:26:42;;;;;;;10.30;7.32;;;;;;;23.16;100.00;96442.16;5030833;28;20523;-58
2021/07/02 06:29:10;;;;;;;10.93;6.88;;;;;;;22.84;100.00;96438.72;5023421;28;20519;-59
2021/07/02 06:31:39;;;;;;;9.43;6.57;;;;;;;23.72;100.00;96434.84;5023146;28;20077;-59
2021/07/02 06:34:07;;;;;;;8.95;6.72;;;;;;;24.81;100.00;96440.81;5016506;28;20085;-59
2021/07/02 06:36:36;;;;;;;10.23;7.28;;;;;;;24.61;100.00;96442.00;5036518;28;20499;-59
2021/07/02 06:39:05;;;;;;;9.18;6.68;;;;;;;23.84;100.00;96447.28;5040978;28;20080;-60
2021/07/02 06:41:34;;;;;;;11.50;6.88;;;;;;;22.89;100.00;96453.16;5034078;28;20073;-59
2021/07/02 06:44:02;;;;;;;8.77;6.72;;;;;;;23.99;100.00;96446.06;5026704;28;20456;-59
2021/07/02 06:46:32;;;;;;;8.27;6.32;;;;;;;24.12;100.00;96454.78;5020844;28;20084;-52
2021/07/02 06:49:04;;;;;;;8.85;6.60;;;;;;;23.48;100.00;96452.75;5041526;28;20048;-57
2021/07/02 06:51:33;;;;;;;9.07;6.57;;;;;;;24.12;100.00;96456.63;5033391;28;20072;-58
2021/07/02 06:54:18;;;;;;;10.10;7.00;;;;;;;22.71;100.00;96463.84;5019966;28;20034;-59
2021/07/02 06:59:40;;;;;;;11.02;6.63;;;;;;;24.46;100.00;96454.28;5107625;27;20598;-59
2021/07/02 07:02:10;;;;;;;8.25;6.75;;;;;;;24.17;100.00;96454.91;5078415;28;20068;-58
2021/07/02 07:04:38;;;;;;;8.80;6.05;;;;;;;23.74;100.00;96452.41;5074540;28;20091;-59
2021/07/02 07:07:08;;;;;;;11.35;7.07;;;;;;;23.67;100.00;96452.53;5078618;28;21336;-58
2021/07/02 07:09:38;;;;;;;9.18;6.43;;;;;;;23.27;100.00;96462.09;5078135;28;20529;-59
2021/07/02 07:12:06;;;;;;;9.67;5.93;;;;;;;23.50;100.00;96456.00;5074028;28;20067;-57
2021/07/02 07:14:35;;;;;;;8.07;6.30;;;;;;;22.59;100.00;96455.72;5069950;28;20063;-54
2021/07/02 07:17:09;;;;;;;8.75;6.57;;;;;;;23.10;100.00;96465.38;5071947;28;20057;-57
2021/07/02 07:19:38;;;;;;;8.80;6.22;;;;;;;22.65;100.00;96470.97;5069206;28;20083;-57
2021/07/02 07:22:06;;;;;;;9.98;6.32;;;;;;;24.10;100.00;96472.22;5075784;28;20282;-57
2021/07/02 07:24:35;;;;;;;7.28;5.70;;;;;;;23.51;100.00;96463.88;5075608;28;20072;-59
2021/07/02 07:27:04;;;;;;;7.50;5.93;;;;;;;23.89;100.00;96463.59;5076936;28;20745;-57
2021/07/02 07:29:32;;;;;;;8.60;6.07;;;;;;;24.49;98.89;96470.00;5076355;28;20443;-57
2021/07/02 07:32:01;;;;;;;8.43;6.28;;;;;;;23.88;99.77;96470.06;5076653;28;20087;-59
2021/07/02 07:34:35;;;;;;;8.25;5.75;;;;;;;23.95;97.58;96467.25;5078365;28;20076;-58
2021/07/02 07:37:07;;;;;;;7.93;5.97;;;;;;;23.89;96.06;96485.16;5078763;28;20412;-54
2021/07/02 07:39:35;;;;;;;8.65;5.65;;;;;;;23.80;91.96;96474.91;5069599;28;20463;-59
2021/07/02 07:42:04;;;;;;;9.52;6.03;;;;;;;25.13;85.42;96472.84;5070914;28;20135;-57
2021/07/02 07:44:33;;;;;;;6.75;5.63;;;;;;;24.23;93.18;96472.03;5072954;28;20044;-59
2021/07/02 07:47:02;;;;;;;9.80;5.93;;;;;;;24.09;92.61;96470.59;5078370;28;20068;-58
2021/07/02 07:49:32;;;;;;;7.57;5.97;;;;;;;24.03;90.51;96466.09;5073085;28;20076;-59
2021/07/02 07:52:10;;;;;;;9.60;5.72;;;;;;;23.90;89.55;96472.50;5071500;28;20477;-58
2021/07/02 07:54:39;;;;;;;9.82;6.32;;;;;;;24.67;84.54;96471.75;5075110;28;20471;-58
2021/07/02 07:57:07;;;;;;;7.88;6.13;;;;;;;26.02;79.06;96471.47;5078825;28;20568;-59
2021/07/02 07:59:36;;;;;;;9.57;6.03;;;;;;;25.02;76.27;96477.19;5070357;28;20080;-58
2021/07/02 08:02:06;;;;;;;8.68;5.55;;;;;;;24.57;77.74;96472.34;5074053;28;20447;-56
2021/07/02 08:04:37;;;;;;;8.25;5.38;;;;;;;24.52;75.85;96481.13;5076193;28;20091;-57
2021/07/02 08:07:05;;;;;;;7.30;5.25;;;;;;;24.23;75.70;96474.72;5068815;28;20969;-58
2021/07/02 08:09:34;;;;;;;7.47;5.93;;;;;;;24.76;77.01;96479.28;5069432;28;20513;-57
2021/07/02 08:12:03;;;;;;;7.72;5.97;;;;;;;25.59;75.27;96471.94;5060643;28;20079;-58
2021/07/02 08:14:31;;;;;;;7.68;5.78;;;;;;;24.07;78.74;96470.81;5061902;28;20045;-58
2021/07/02 08:17:00;;;;;;;7.53;6.10;;;;;;;24.87;81.70;96472.25;5057231;28;20072;-56
2021/07/02 08:19:28;;;;;;;6.97;5.63;;;;;;;24.52;76.72;96473.03;5069887;28;20123;-58
2021/07/02 08:21:58;;;;;;;7.97;5.78;;;;;;;24.49;76.82;96483.47;5055063;28;20079;-58
2021/07/02 08:24:26;;;;;;;6.80;5.22;;;;;;;24.57;84.86;96483.97;5057018;28;20067;-56
2021/07/02 08:26:58;;;;;;;7.32;5.68;;;;;;;24.12;91.04;96479.03;5060228;28;20071;-59
2021/07/02 08:29:26;;;;;;;6.82;5.60;;;;;;;23.90;89.12;96483.28;5062673;28;20064;-56
2021/07/02 08:31:57;;;;;;;10.07;5.72;;;;;;;24.62;72.62;96483.25;5054005;28;20080;-57
2021/07/02 08:34:25;;;;;;;10.35;6.30;;;;;;;25.74;72.79;96485.75;5062189;28;20079;-59
2021/07/02 08:36:54;;;;;;;11.23;6.35;;;;;;;24.67;76.51;96482.53;5060576;28;20505;-59
2021/07/02 08:39:23;;;;;;;8.07;6.32;;;;;;;25.47;71.85;96477.38;5058793;28;20075;-58
2021/07/02 08:41:52;;;;;;;8.45;6.18;;;;;;;26.62;65.80;96486.28;5053277;28;20071;-59
2021/07/02 08:44:20;;;;;;;9.63;6.60;;;;;;;25.48;71.96;96484.41;5061294;28;20127;-60
2021/07/02 08:46:50;;;;;;;11.20;6.45;;;;;;;25.76;72.80;96475.50;5058336;28;20084;-57
2021/07/02 08:49:29;;;;;;;8.18;6.30;;;;;;;25.96;69.55;96482.41;5058427;28;20072;-55
2021/07/02 08:51:57;;;;;;;8.07;6.15;;;;;;;26.38;71.18;96485.59;5058793;28;20088;-58
2021/07/02 08:54:27;;;;;;;8.73;6.00;;;;;;;26.32;65.69;96483.03;5061848;28;20067;-59
2021/07/02 08:56:58;;;;;;;7.93;5.50;;;;;;;25.43;77.15;96495.13;5062884;28;20112;-56
2021/07/02 08:59:28;;;;;;;8.85;6.22;;;;;;;25.19;76.03;96496.19;5060023;28;20062;-60
2021/07/02 09:01:57;;;;;;;8.23;6.60;;;;;;;27.11;64.86;96485.69;5061498;28;20080;-51
2021/07/02 09:04:29;;;;;;;9.93;7.55;;;;;;;28.02;52.66;96482.56;5063369;28;20076;-57
2021/07/02 09:07:10;;;;;;;9.40;6.90;;;;;;;29.33;46.86;96481.22;5059420;28;20056;-55
2021/07/02 09:09:51;;;;;;;9.80;6.28;;;;;;;29.31;47.12;96481.47;5062644;28;20060;-55
2021/07/02 09:12:21;;;;;;;7.60;5.50;;;;;;;27.20;56.73;96485.03;5053940;28;20067;-56
2021/07/02 09:15:04;;;;;;;7.53;5.90;;;;;;;27.04;54.27;96483.16;5056718;28;20514;-58
2021/07/02 09:17:34;;;;;;;8.57;6.03;;;;;;;27.42;54.04;96481.53;5057017;28;20108;-58
2021/07/02 09:20:14;;;;;;;8.25;5.80;;;;;;;27.43;59.74;96484.00;5061939;28;20815;-56
2021/07/02 09:22:48;;;;;;;7.15;5.65;;;;;;;27.75;56.58;96483.31;5059483;28;20084;-59
2021/07/02 09:25:26;;;;;;;8.15;5.35;;;;;;;26.47;56.41;96489.56;5061587;28;20076;-57
2021/07/02 09:27:58;;;;;;;8.40;5.72;;;;;;;27.07;50.88;96488.06;5055832;28;20075;-57
2021/07/02 09:30:29;;;;;;;6.75;5.32;;;;;;;28.14;52.14;96478.59;5062952;28;20095;-58
2021/07/02 09:33:00;;;;;;;7.50;5.65;;;;;;;26.52;54.23;96473.41;5054627;28;20063;-59
2021/07/02 09:35:35;;;;;;;6.95;5.22;;;;;;;26.81;57.15;96473.34;5057133;28;20645;-58
2021/07/02 09:38:05;;;;;;;6.95;5.55;;;;;;;27.62;53.20;96479.06;5059808;28;20057;-59
2021/07/02 09:40:37;;;;;;;7.55;5.63;;;;;;;28.63;53.75;96481.25;5060533;28;20077;-59
2021/07/02 09:43:08;;;;;;;9.40;5.10;;;;;;;27.27;49.04;96484.03;5057938;28;20631;-59
2021/07/02 09:45:45;;;;;;;7.63;5.28;;;;;;;26.42;51.54;96484.03;5059174;28;20102;-59
2021/07/02 09:48:14;;;;;;;6.00;4.22;;;;;;;25.65;56.61;96479.06;5054921;28;20060;-59
2021/07/02 09:50:44;;;;;;;6.18;4.78;;;;;;;26.38;55.10;96488.28;5055841;28;20072;-59
2021/07/02 09:53:12;;;;;;;6.22;5.20;;;;;;;26.63;53.56;96477.09;5054277;28;20450;-58
2021/07/02 09:55:46;;;;;;;11.55;5.20;;;;;;;26.28;53.25;96480.81;5060729;28;20084;-55
2021/07/02 09:58:16;;;;;;;7.88;4.95;;;;;;;26.54;50.96;96484.00;5060054;28;20087;-59
2021/07/02 10:00:47;;;;;;;6.07;5.15;;;;;;;26.86;51.38;96481.53;5054704;28;20060;-58
2021/07/02 10:03:16;;;;;;;6.35;5.05;;;;;;;28.25;53.96;96487.69;5060540;28;20068;-56
2021/07/02 10:05:53;;;;;;;9.73;4.50;;;;;;;27.61;50.63;96474.75;5057946;28;20095;-58
2021/07/02 10:08:24;;;;;;;5.57;4.45;;;;;;;28.20;49.55;96497.66;5054264;28;20148;-58
2021/07/02 10:10:54;;;;;;;6.65;5.72;;;;;;;28.73;48.29;96495.97;5060586;28;20076;-59
2021/07/02 10:13:25;;;;;;;6.28;5.15;;;;;;;28.51;44.70;96488.75;5064864;28;20072;-57
2021/07/02 10:15:56;;;;;;;6.28;5.15;;;;;;;28.54;44.42;96482.00;5050359;28;20071;-58
2021/07/02 10:18:24;;;;;;;;;;;;;;;29.34;44.92;96480.94;5060298;28;20060;-59
2021/07/02 10:20:55;;;;;;;7.45;5.32;;;;;;;29.23;47.25;96479.25;5055270;28;19948;-58
2021/07/02 10:23:26;;;;;;;7.03;5.25;;;;;;;29.92;44.72;96480.13;5059399;28;20466;-58
2021/07/02 10:25:57;;;;;;;6.18;5.25;;;;;;;29.48;47.83;96481.28;5049240;28;20466;-59
2021/07/02 10:28:27;;;;;;;6.65;5.20;;;;;;;29.48;48.36;96485.91;5065084;28;20091;-58
2021/07/02 10:30:55;;;;;;;6.70;5.28;;;;;;;29.58;46.31;96489.47;5053744;28;20067;-59
2021/07/02 10:33:25;;;;;;;7.57;4.90;;;;;;;28.82;45.57;96483.56;5062774;28;20129;-58
2021/07/02 10:35:55;;;;;;;8.35;5.03;;;;;;;28.51;47.48;96483.31;5055525;28;20467;-58
2021/07/02 10:38:23;;;;;;;7.75;5.20;;;;;;;27.65;48.68;96481.28;5059102;28;20448;-58
2021/07/02 10:40:51;;;;;;;8.95;5.60;;;;;;;28.62;50.93;96481.50;5057867;28;20075;-59
2021/07/02 10:43:23;;;;;;;6.30;5.07;;;;;;;27.86;49.67;96478.84;5061935;28;20079;-59
2021/07/02 10:46:11;;;;;;;6.63;4.75;;;;;;;29.48;40.38;96480.47;5055486;28;20556;-59
2021/07/02 10:48:54;;;;;;;7.05;5.30;;;;;;;29.96;43.48;96478.50;5054028;28;20075;-59
2021/07/02 10:51:42;;;;;;;6.82;5.07;;;;;;;30.11;42.86;96488.59;5049331;28;20083;-58
2021/07/02 10:54:29;;;;;;;6.70;4.97;;;;;;;28.62;45.39;96482.31;5054250;28;20060;-58
2021/07/02 10:57:06;;;;;;;6.95;5.32;;;;;;;29.13;43.65;96484.63;5055550;28;20090;-57
2021/07/02 11:00:13;;;;;;;9.30;5.30;;;;;;;28.05;45.27;96487.47;5058463;28;20060;-59
2021/07/02 11:02:43;;;;;;;6.38;5.18;;;;;;;29.21;44.72;96477.88;5055666;28;20541;-58
2021/07/02 11:05:34;;;;;;;5.05;4.32;;;;;;;28.15;43.80;96482.16;5054208;28;20060;-57
2021/07/02 11:08:03;;;;;;;6.05;4.88;;;;;;;29.47;41.83;96479.66;5055968;28;20065;-58
2021/07/02 11:10:57;;;;;;;6.38;3.80;;;;;;;28.62;44.05;96466.03;5059989;28;20451;-58
2021/07/02 11:13:25;;;;;;;6.97;5.15;;;;;;;28.30;48.59;96471.44;5058647;28;20406;-59
2021/07/02 11:16:08;;;;;;;5.90;4.80;;;;;;;28.06;43.99;96473.66;5059933;28;20060;-58
2021/07/02 11:18:40;;;;;;;6.10;4.53;;;;;;;27.57;49.80;96468.19;5050106;28;20064;-59
2021/07/02 11:21:19;;;;;;;7.30;4.93;;;;;;;27.36;44.79;96464.41;5056107;28;20643;-58
2021/07/02 11:24:06;;;;;;;7.72;5.20;;;;;;;28.87;42.52;96464.59;5053020;28;20138;-57
2021/07/02 11:26:43;;;;;;;6.30;4.30;;;;;;;28.28;43.69;96468.16;5057276;28;20548;-56
2021/07/02 11:29:11;;;;;;;5.53;4.45;;;;;;;28.12;47.58;96464.50;5056820;28;20064;-58
2021/07/02 11:31:41;;;;;;;4.80;4.30;;;;;;;28.43;42.27;96472.94;5062068;28;20447;-58
2021/07/02 11:34:15;;;;;;;7.00;4.82;;;;;;;28.35;44.39;96478.78;5052974;28;20076;-58
2021/07/02 11:37:10;;;;;;;5.78;4.72;;;;;;;28.27;40.77;96474.66;5058417;28;20040;-59
2021/07/02 11:39:40;;;;;;;5.18;4.50;;;;;;;29.15;43.48;96476.19;5056015;28;20754;-59
2021/07/02 11:42:10;;;;;;;5.40;4.53;;;;;;;29.94;44.27;96472.50;5052178;28;20084;-58
2021/07/02 11:44:39;;;;;;;5.72;4.50;;;;;;;28.99;42.97;96472.56;5057183;28;20320;-56